sensor_id;sensor_type;location;lat;lon;timestamp;temperature;humidity
11583;DHT22;34299;50.820;4.548;2024-01-15T00:00:09;1.50;99.90
11583;DHT22;34299;50.820;4.548;2024-01-15T00:02:36;1.50;99.90
11583;DHT22;34299;50.820;4.548;2024-01-15T00:05:05;1.50;99.90
11583;DHT22;34299;50.820;4.548;2024-01-15T00:07:32;1.40;99.90
11583;DHT22;34299;50.820;4.548;2024-01-15T00:09:59;1.60;99.90
11583;DHT22;34299;50.820;4.548;2024-01-15T00:12:26;1.60;99.90
11583;DHT22;34299;50.820;4.548;2024-01-15T00:14:53;1.50;99.90
11583;DHT22;34299;50.820;4.548;2024-01-15T00:17:20;1.40;99.90
11583;DHT22;34299;50.820;4.548;2024-01-15T00:19:47;1.20;99.90
11583;DHT22;34299;50.820;4.548;2024-01-15T00:22:15;1.50;99.90
11583;DHT22;34299;50.820;4.548;2024-01-15T00:24:42;1.50;99.90
11583;DHT22;34299;50.820;4.548;2024-01-15T00:27:09;1.50;99.90
11583;DHT22;34299;50.820;4.548;2024-01-15T00:29:36;1.60;99.90
11583;DHT22;34299;50.820;4.548;2024-01-15T00:32:04;1.40;99.90
11583;DHT22;34299;50.820;4.548;2024-01-15T00:34:31;1.40;99.90
11583;DHT22;34299;50.820;4.548;2024-01-15T00:36:57;1.50;99.90
11583;DHT22;34299;50.820;4.548;2024-01-15T00:39:26;1.30;99.90
11583;DHT22;34299;50.820;4.548;2024-01-15T00:41:53;1.50;99.90
11583;DHT22;34299;50.820;4.548;2024-01-15T00:44:20;1.60;99.90
11583;DHT22;34299;50.820;4.548;2024-01-15T00:46:47;1.40;99.90
11583;DHT22;34299;50.820;4.548;2024-01-15T00:49:14;1.50;99.90
11583;DHT22;34299;50.820;4.548;2024-01-15T00:51:41;1.60;99.90
11583;DHT22;34299;50.820;4.548;2024-01-15T00:54:08;1.50;99.90
11583;DHT22;34299;50.820;4.548;2024-01-15T00:56:36;1.60;99.90
11583;DHT22;34299;50.820;4.548;2024-01-15T00:59:03;1.60;99.90
11583;DHT22;34299;50.820;4.548;2024-01-15T01:01:30;1.50;99.90
11583;DHT22;34299;50.820;4.548;2024-01-15T01:03:57;1.50;99.90
11583;DHT22;34299;50.820;4.548;2024-01-15T01:06:25;1.40;99.90
11583;DHT22;34299;50.820;4.548;2024-01-15T01:08:52;1.50;99.90
11583;DHT22;34299;50.820;4.548;2024-01-15T01:11:19;1.50;99.90
11583;DHT22;34299;50.820;4.548;2024-01-15T01:13:47;1.60;99.90
11583;DHT22;34299;50.820;4.548;2024-01-15T01:16:14;1.50;99.90
11583;DHT22;34299;50.820;4.548;2024-01-15T01:18:41;1.50;99.90
11583;DHT22;34299;50.820;4.548;2024-01-15T01:21:08;1.40;99.90
11583;DHT22;34299;50.820;4.548;2024-01-15T01:23:35;1.50;99.90
11583;DHT22;34299;50.820;4.548;2024-01-15T01:26:02;1.40;99.90
11583;DHT22;34299;50.820;4.548;2024-01-15T01:28:28;1.50;99.90
11583;DHT22;34299;50.820;4.548;2024-01-15T01:30:57;1.60;99.90
11583;DHT22;34299;50.820;4.548;2024-01-15T01:33:24;1.50;99.90
11583;DHT22;34299;50.820;4.548;2024-01-15T01:35:51;1.70;99.90
11583;DHT22;34299;50.820;4.548;2024-01-15T01:38:18;1.60;99.90
11583;DHT22;34299;50.820;4.548;2024-01-15T01:40:45;1.50;99.90
11583;DHT22;34299;50.820;4.548;2024-01-15T01:43:12;1.60;99.90
11583;DHT22;34299;50.820;4.548;2024-01-15T01:45:39;1.50;99.90
11583;DHT22;34299;50.820;4.548;2024-01-15T01:48:07;1.40;99.90
11583;DHT22;34299;50.820;4.548;2024-01-15T01:50:34;1.50;99.90
11583;DHT22;34299;50.820;4.548;2024-01-15T01:53:02;1.50;99.90
11583;DHT22;34299;50.820;4.548;2024-01-15T01:55:31;1.40;99.90
11583;DHT22;34299;50.820;4.548;2024-01-15T01:58:00;1.50;99.90
11583;DHT22;34299;50.820;4.548;2024-01-15T02:00:28;1.60;99.90
11583;DHT22;34299;50.820;4.548;2024-01-15T02:02:55;1.60;99.90
11583;DHT22;34299;50.820;4.548;2024-01-15T02:05:24;1.60;99.90
11583;DHT22;34299;50.820;4.548;2024-01-15T02:07:52;1.70;99.90
11583;DHT22;34299;50.820;4.548;2024-01-15T02:10:19;1.60;99.90
11583;DHT22;34299;50.820;4.548;2024-01-15T02:12:46;1.50;99.90
11583;DHT22;34299;50.820;4.548;2024-01-15T02:15:14;1.70;99.90
11583;DHT22;34299;50.820;4.548;2024-01-15T02:18:00;1.60;99.90
11583;DHT22;34299;50.820;4.548;2024-01-15T02:20:29;1.80;99.90
11583;DHT22;34299;50.820;4.548;2024-01-15T02:23:06;1.70;99.90
11583;DHT22;34299;50.820;4.548;2024-01-15T02:25:34;1.50;99.90
11583;DHT22;34299;50.820;4.548;2024-01-15T02:28:02;1.60;99.90
11583;DHT22;34299;50.820;4.548;2024-01-15T02:30:30;1.50;99.90
11583;DHT22;34299;50.820;4.548;2024-01-15T02:32:58;1.60;99.90
11583;DHT22;34299;50.820;4.548;2024-01-15T02:35:24;1.60;99.90
11583;DHT22;34299;50.820;4.548;2024-01-15T02:37:51;1.50;99.90
11583;DHT22;34299;50.820;4.548;2024-01-15T02:40:20;1.50;99.90
11583;DHT22;34299;50.820;4.548;2024-01-15T02:42:46;1.50;99.90
11583;DHT22;34299;50.820;4.548;2024-01-15T02:45:13;1.50;99.90
11583;DHT22;34299;50.820;4.548;2024-01-15T02:47:40;1.50;99.90
11583;DHT22;34299;50.820;4.548;2024-01-15T02:50:07;1.60;99.90
11583;DHT22;34299;50.820;4.548;2024-01-15T02:52:34;1.70;99.90
11583;DHT22;34299;50.820;4.548;2024-01-15T02:55:01;1.60;99.90
11583;DHT22;34299;50.820;4.548;2024-01-15T02:57:30;1.60;99.90
11583;DHT22;34299;50.820;4.548;2024-01-15T02:59:56;1.80;99.90
11583;DHT22;34299;50.820;4.548;2024-01-15T03:02:23;1.60;99.90
11583;DHT22;34299;50.820;4.548;2024-01-15T03:04:50;1.70;99.90
11583;DHT22;34299;50.820;4.548;2024-01-15T03:07:17;1.40;99.90
11583;DHT22;34299;50.820;4.548;2024-01-15T03:09:44;1.60;99.90
11583;DHT22;34299;50.820;4.548;2024-01-15T03:12:11;1.90;99.90
11583;DHT22;34299;50.820;4.548;2024-01-15T03:14:39;1.70;99.90
11583;DHT22;34299;50.820;4.548;2024-01-15T03:17:06;1.90;99.90
11583;DHT22;34299;50.820;4.548;2024-01-15T03:19:35;1.80;99.90
11583;DHT22;34299;50.820;4.548;2024-01-15T03:22:02;1.70;99.90
11583;DHT22;34299;50.820;4.548;2024-01-15T03:24:29;1.40;99.90
11583;DHT22;34299;50.820;4.548;2024-01-15T03:26:56;1.50;99.90
11583;DHT22;34299;50.820;4.548;2024-01-15T03:29:23;1.60;99.90
11583;DHT22;34299;50.820;4.548;2024-01-15T03:31:51;1.70;99.90
11583;DHT22;34299;50.820;4.548;2024-01-15T03:34:18;1.50;99.90
11583;DHT22;34299;50.820;4.548;2024-01-15T03:36:45;1.60;99.90
11583;DHT22;34299;50.820;4.548;2024-01-15T03:39:12;1.60;99.90
11583;DHT22;34299;50.820;4.548;2024-01-15T03:41:40;1.60;99.90
11583;DHT22;34299;50.820;4.548;2024-01-15T03:44:07;1.70;99.90
11583;DHT22;34299;50.820;4.548;2024-01-15T03:46:33;1.60;99.90
11583;DHT22;34299;50.820;4.548;2024-01-15T03:49:02;1.60;99.90
11583;DHT22;34299;50.820;4.548;2024-01-15T03:51:29;1.70;99.90
11583;DHT22;34299;50.820;4.548;2024-01-15T03:53:55;1.70;99.90
11583;DHT22;34299;50.820;4.548;2024-01-15T03:56:22;1.80;99.90
11583;DHT22;34299;50.820;4.548;2024-01-15T03:58:49;1.80;99.90
11583;DHT22;34299;50.820;4.548;2024-01-15T04:01:16;1.60;99.90
11583;DHT22;34299;50.820;4.548;2024-01-15T04:03:43;1.80;99.90
11583;DHT22;34299;50.820;4.548;2024-01-15T04:06:11;1.50;99.90
11583;DHT22;34299;50.820;4.548;2024-01-15T04:08:38;1.60;99.90
11583;DHT22;34299;50.820;4.548;2024-01-15T04:11:05;1.40;99.90
11583;DHT22;34299;50.820;4.548;2024-01-15T04:13:32;1.50;99.90
11583;DHT22;34299;50.820;4.548;2024-01-15T04:16:00;1.70;99.90
11583;DHT22;34299;50.820;4.548;2024-01-15T04:18:27;1.50;99.90
11583;DHT22;34299;50.820;4.548;2024-01-15T04:20:54;1.30;99.90
11583;DHT22;34299;50.820;4.548;2024-01-15T04:23:22;1.40;99.90
11583;DHT22;34299;50.820;4.548;2024-01-15T04:25:49;1.40;99.90
11583;DHT22;34299;50.820;4.548;2024-01-15T04:28:16;1.40;99.90
11583;DHT22;34299;50.820;4.548;2024-01-15T04:30:43;1.60;99.90
11583;DHT22;34299;50.820;4.548;2024-01-15T04:33:10;1.60;99.90
11583;DHT22;34299;50.820;4.548;2024-01-15T04:35:37;1.80;99.90
11583;DHT22;34299;50.820;4.548;2024-01-15T04:38:04;1.50;99.90
11583;DHT22;34299;50.820;4.548;2024-01-15T04:40:33;1.50;99.90
11583;DHT22;34299;50.820;4.548;2024-01-15T04:42:59;1.40;99.90
11583;DHT22;34299;50.820;4.548;2024-01-15T04:45:26;1.30;99.90
11583;DHT22;34299;50.820;4.548;2024-01-15T04:47:54;1.50;99.90
11583;DHT22;34299;50.820;4.548;2024-01-15T04:50:22;1.30;99.90
11583;DHT22;34299;50.820;4.548;2024-01-15T04:52:49;1.40;99.90
11583;DHT22;34299;50.820;4.548;2024-01-15T04:55:16;1.40;99.90
11583;DHT22;34299;50.820;4.548;2024-01-15T04:57:45;1.40;99.90
11583;DHT22;34299;50.820;4.548;2024-01-15T05:00:12;1.40;99.90
11583;DHT22;34299;50.820;4.548;2024-01-15T05:02:40;1.50;99.90
11583;DHT22;34299;50.820;4.548;2024-01-15T05:05:07;1.50;99.90
11583;DHT22;34299;50.820;4.548;2024-01-15T05:07:34;1.50;99.90
11583;DHT22;34299;50.820;4.548;2024-01-15T05:10:01;1.40;99.90
11583;DHT22;34299;50.820;4.548;2024-01-15T05:12:28;1.50;99.90
11583;DHT22;34299;50.820;4.548;2024-01-15T05:14:56;1.50;99.90
11583;DHT22;34299;50.820;4.548;2024-01-15T05:17:23;1.30;99.90
11583;DHT22;34299;50.820;4.548;2024-01-15T05:19:50;1.30;99.90
11583;DHT22;34299;50.820;4.548;2024-01-15T05:22:17;1.40;99.90
11583;DHT22;34299;50.820;4.548;2024-01-15T05:24:44;1.20;99.90
11583;DHT22;34299;50.820;4.548;2024-01-15T05:27:11;1.20;99.90
11583;DHT22;34299;50.820;4.548;2024-01-15T05:29:38;1.20;99.90
11583;DHT22;34299;50.820;4.548;2024-01-15T05:32:06;1.20;99.90
11583;DHT22;34299;50.820;4.548;2024-01-15T05:34:33;1.00;99.90
11583;DHT22;34299;50.820;4.548;2024-01-15T05:37:00;1.20;99.90
11583;DHT22;34299;50.820;4.548;2024-01-15T05:39:27;1.20;99.90
11583;DHT22;34299;50.820;4.548;2024-01-15T05:41:54;1.00;99.90
11583;DHT22;34299;50.820;4.548;2024-01-15T05:44:21;1.10;99.90
11583;DHT22;34299;50.820;4.548;2024-01-15T05:46:47;1.20;99.90
11583;DHT22;34299;50.820;4.548;2024-01-15T05:49:16;1.10;99.90
11583;DHT22;34299;50.820;4.548;2024-01-15T05:51:43;1.10;99.90
11583;DHT22;34299;50.820;4.548;2024-01-15T05:54:10;0.90;99.90
11583;DHT22;34299;50.820;4.548;2024-01-15T05:56:36;1.10;99.90
11583;DHT22;34299;50.820;4.548;2024-01-15T05:59:03;1.10;99.90
11583;DHT22;34299;50.820;4.548;2024-01-15T06:01:30;1.00;99.90
11583;DHT22;34299;50.820;4.548;2024-01-15T06:03:57;1.00;99.90
11583;DHT22;34299;50.820;4.548;2024-01-15T06:06:25;1.00;99.90
11583;DHT22;34299;50.820;4.548;2024-01-15T06:08:52;0.90;99.90
11583;DHT22;34299;50.820;4.548;2024-01-15T06:11:19;1.10;99.90
11583;DHT22;34299;50.820;4.548;2024-01-15T06:13:46;0.90;99.90
11583;DHT22;34299;50.820;4.548;2024-01-15T06:16:14;0.70;99.90
11583;DHT22;34299;50.820;4.548;2024-01-15T06:18:42;1.00;99.90
11583;DHT22;34299;50.820;4.548;2024-01-15T06:21:09;1.10;99.90
11583;DHT22;34299;50.820;4.548;2024-01-15T06:23:39;1.10;99.90
11583;DHT22;34299;50.820;4.548;2024-01-15T06:26:06;1.10;99.90
11583;DHT22;34299;50.820;4.548;2024-01-15T06:28:33;1.00;99.90
11583;DHT22;34299;50.820;4.548;2024-01-15T06:31:00;1.00;99.90
11583;DHT22;34299;50.820;4.548;2024-01-15T06:33:27;1.00;99.90
11583;DHT22;34299;50.820;4.548;2024-01-15T06:35:54;0.90;99.90
11583;DHT22;34299;50.820;4.548;2024-01-15T06:38:21;0.80;99.90
11583;DHT22;34299;50.820;4.548;2024-01-15T06:40:50;0.70;99.90
11583;DHT22;34299;50.820;4.548;2024-01-15T06:43:17;0.60;99.90
11583;DHT22;34299;50.820;4.548;2024-01-15T06:45:44;0.70;99.90
11583;DHT22;34299;50.820;4.548;2024-01-15T06:48:11;0.60;99.90
11583;DHT22;34299;50.820;4.548;2024-01-15T06:50:40;0.60;99.90
11583;DHT22;34299;50.820;4.548;2024-01-15T06:53:07;0.70;99.90
11583;DHT22;34299;50.820;4.548;2024-01-15T06:55:34;0.60;99.90
11583;DHT22;34299;50.820;4.548;2024-01-15T06:58:03;1.20;99.90
11583;DHT22;34299;50.820;4.548;2024-01-15T07:00:30;0.60;99.90
11583;DHT22;34299;50.820;4.548;2024-01-15T07:02:57;0.70;99.90
11583;DHT22;34299;50.820;4.548;2024-01-15T07:05:24;0.60;99.90
11583;DHT22;34299;50.820;4.548;2024-01-15T07:07:51;0.70;99.90
11583;DHT22;34299;50.820;4.548;2024-01-15T07:10:17;0.60;99.90
11583;DHT22;34299;50.820;4.548;2024-01-15T07:12:44;0.40;99.90
11583;DHT22;34299;50.820;4.548;2024-01-15T07:15:13;0.50;99.90
11583;DHT22;34299;50.820;4.548;2024-01-15T07:17:41;0.60;99.90
11583;DHT22;34299;50.820;4.548;2024-01-15T07:20:09;0.70;99.90
11583;DHT22;34299;50.820;4.548;2024-01-15T07:22:36;0.70;99.90
11583;DHT22;34299;50.820;4.548;2024-01-15T07:25:03;0.60;99.90
11583;DHT22;34299;50.820;4.548;2024-01-15T07:27:32;0.60;99.90
11583;DHT22;34299;50.820;4.548;2024-01-15T07:30:00;0.60;99.90
11583;DHT22;34299;50.820;4.548;2024-01-15T07:32:31;0.50;99.90
11583;DHT22;34299;50.820;4.548;2024-01-15T07:34:58;0.50;99.90
11583;DHT22;34299;50.820;4.548;2024-01-15T07:37:25;0.40;99.90
11583;DHT22;34299;50.820;4.548;2024-01-15T07:39:52;0.30;99.90
11583;DHT22;34299;50.820;4.548;2024-01-15T07:42:19;0.50;99.90
11583;DHT22;34299;50.820;4.548;2024-01-15T07:44:46;0.50;99.90
11583;DHT22;34299;50.820;4.548;2024-01-15T07:47:13;0.40;99.90
11583;DHT22;34299;50.820;4.548;2024-01-15T07:49:41;0.50;99.90
11583;DHT22;34299;50.820;4.548;2024-01-15T07:52:08;0.30;99.90
11583;DHT22;34299;50.820;4.548;2024-01-15T07:54:35;0.40;99.90
11583;DHT22;34299;50.820;4.548;2024-01-15T07:57:03;0.60;99.90
11583;DHT22;34299;50.820;4.548;2024-01-15T07:59:30;0.40;99.90
11583;DHT22;34299;50.820;4.548;2024-01-15T08:01:58;0.70;99.90
11583;DHT22;34299;50.820;4.548;2024-01-15T08:04:25;0.70;99.90
11583;DHT22;34299;50.820;4.548;2024-01-15T08:06:54;1.00;99.90
11583;DHT22;34299;50.820;4.548;2024-01-15T08:09:22;0.80;99.90
11583;DHT22;34299;50.820;4.548;2024-01-15T08:11:49;0.80;99.90
11583;DHT22;34299;50.820;4.548;2024-01-15T08:14:17;0.70;99.90
11583;DHT22;34299;50.820;4.548;2024-01-15T08:16:44;0.70;99.90
11583;DHT22;34299;50.820;4.548;2024-01-15T08:19:11;0.90;99.90
11583;DHT22;34299;50.820;4.548;2024-01-15T08:21:39;0.70;99.90
11583;DHT22;34299;50.820;4.548;2024-01-15T08:24:08;1.00;99.90
11583;DHT22;34299;50.820;4.548;2024-01-15T08:26:35;0.90;99.90
11583;DHT22;34299;50.820;4.548;2024-01-15T08:29:02;0.90;99.90
11583;DHT22;34299;50.820;4.548;2024-01-15T08:31:29;1.00;99.90
11583;DHT22;34299;50.820;4.548;2024-01-15T08:33:56;0.80;99.90
11583;DHT22;34299;50.820;4.548;2024-01-15T08:36:25;0.80;99.90
11583;DHT22;34299;50.820;4.548;2024-01-15T08:38:52;0.80;99.90
11583;DHT22;34299;50.820;4.548;2024-01-15T08:41:20;0.90;99.90
11583;DHT22;34299;50.820;4.548;2024-01-15T08:43:47;1.00;99.90
11583;DHT22;34299;50.820;4.548;2024-01-15T08:46:14;1.00;99.90
11583;DHT22;34299;50.820;4.548;2024-01-15T08:48:41;0.90;99.90
11583;DHT22;34299;50.820;4.548;2024-01-15T08:51:08;0.70;99.90
11583;DHT22;34299;50.820;4.548;2024-01-15T08:53:35;1.00;99.90
11583;DHT22;34299;50.820;4.548;2024-01-15T08:56:02;0.90;99.90
11583;DHT22;34299;50.820;4.548;2024-01-15T08:58:30;1.10;99.90
11583;DHT22;34299;50.820;4.548;2024-01-15T09:00:57;1.00;99.90
11583;DHT22;34299;50.820;4.548;2024-01-15T09:03:24;1.10;99.90
11583;DHT22;34299;50.820;4.548;2024-01-15T09:05:51;1.10;99.90
11583;DHT22;34299;50.820;4.548;2024-01-15T09:08:18;1.20;99.90
11583;DHT22;34299;50.820;4.548;2024-01-15T09:10:45;1.20;99.90
11583;DHT22;34299;50.820;4.548;2024-01-15T09:13:12;1.20;99.90
11583;DHT22;34299;50.820;4.548;2024-01-15T09:15:40;1.10;99.90
11583;DHT22;34299;50.820;4.548;2024-01-15T09:18:08;1.20;99.90
11583;DHT22;34299;50.820;4.548;2024-01-15T09:20:35;1.20;99.90
11583;DHT22;34299;50.820;4.548;2024-01-15T09:23:04;1.20;99.90
11583;DHT22;34299;50.820;4.548;2024-01-15T09:25:31;1.20;99.90
11583;DHT22;34299;50.820;4.548;2024-01-15T09:27:58;1.30;99.90
11583;DHT22;34299;50.820;4.548;2024-01-15T09:30:25;1.40;99.90
11583;DHT22;34299;50.820;4.548;2024-01-15T09:32:53;1.50;99.90
11583;DHT22;34299;50.820;4.548;2024-01-15T09:35:20;1.60;99.90
11583;DHT22;34299;50.820;4.548;2024-01-15T09:37:47;1.80;99.90
11583;DHT22;34299;50.820;4.548;2024-01-15T09:40:14;1.70;99.90
11583;DHT22;34299;50.820;4.548;2024-01-15T09:42:42;1.70;99.90
11583;DHT22;34299;50.820;4.548;2024-01-15T09:45:10;1.70;99.90
11583;DHT22;34299;50.820;4.548;2024-01-15T09:47:37;1.90;99.90
11583;DHT22;34299;50.820;4.548;2024-01-15T09:50:06;1.80;99.90
11583;DHT22;34299;50.820;4.548;2024-01-15T09:52:34;2.20;99.90
11583;DHT22;34299;50.820;4.548;2024-01-15T09:55:03;2.00;99.90
11583;DHT22;34299;50.820;4.548;2024-01-15T09:57:31;2.10;99.90
11583;DHT22;34299;50.820;4.548;2024-01-15T09:59:59;2.40;99.90
11583;DHT22;34299;50.820;4.548;2024-01-15T10:02:29;2.50;99.90
11583;DHT22;34299;50.820;4.548;2024-01-15T10:04:57;2.80;99.90
11583;DHT22;34299;50.820;4.548;2024-01-15T10:07:26;2.90;99.90
11583;DHT22;34299;50.820;4.548;2024-01-15T10:09:53;2.90;99.90
11583;DHT22;34299;50.820;4.548;2024-01-15T10:12:22;3.10;99.90
11583;DHT22;34299;50.820;4.548;2024-01-15T10:14:50;3.10;99.90
11583;DHT22;34299;50.820;4.548;2024-01-15T10:17:17;3.00;99.90
11583;DHT22;34299;50.820;4.548;2024-01-15T10:19:45;3.00;99.90
11583;DHT22;34299;50.820;4.548;2024-01-15T10:22:13;3.00;99.90
11583;DHT22;34299;50.820;4.548;2024-01-15T10:24:41;2.90;99.90
11583;DHT22;34299;50.820;4.548;2024-01-15T10:27:09;3.20;99.90
11583;DHT22;34299;50.820;4.548;2024-01-15T10:29:37;3.40;99.90
11583;DHT22;34299;50.820;4.548;2024-01-15T10:32:06;3.60;99.90
11583;DHT22;34299;50.820;4.548;2024-01-15T10:34:34;3.50;99.90
11583;DHT22;34299;50.820;4.548;2024-01-15T10:37:04;3.70;99.90
11583;DHT22;34299;50.820;4.548;2024-01-15T10:39:32;3.60;99.90
11583;DHT22;34299;50.820;4.548;2024-01-15T10:42:00;3.90;99.90
11583;DHT22;34299;50.820;4.548;2024-01-15T10:44:29;3.70;99.90
11583;DHT22;34299;50.820;4.548;2024-01-15T10:46:57;3.70;99.90
11583;DHT22;34299;50.820;4.548;2024-01-15T10:49:24;3.90;99.90
11583;DHT22;34299;50.820;4.548;2024-01-15T10:51:52;3.50;99.90
11583;DHT22;34299;50.820;4.548;2024-01-15T10:54:20;3.70;99.90
11583;DHT22;34299;50.820;4.548;2024-01-15T10:56:49;3.70;99.90
11583;DHT22;34299;50.820;4.548;2024-01-15T10:59:20;3.80;99.90
11583;DHT22;34299;50.820;4.548;2024-01-15T11:01:47;3.60;99.90
11583;DHT22;34299;50.820;4.548;2024-01-15T11:04:14;4.10;99.90
11583;DHT22;34299;50.820;4.548;2024-01-15T11:06:43;4.10;99.90
11583;DHT22;34299;50.820;4.548;2024-01-15T11:09:11;4.20;99.90
11583;DHT22;34299;50.820;4.548;2024-01-15T11:11:41;4.50;99.90
11583;DHT22;34299;50.820;4.548;2024-01-15T11:14:08;4.10;99.90
11583;DHT22;34299;50.820;4.548;2024-01-15T11:17:04;4.50;99.90
11583;DHT22;34299;50.820;4.548;2024-01-15T11:19:36;4.50;99.90
11583;DHT22;34299;50.820;4.548;2024-01-15T11:22:07;4.60;99.90
11583;DHT22;34299;50.820;4.548;2024-01-15T11:24:39;4.80;99.90
11583;DHT22;34299;50.820;4.548;2024-01-15T11:27:07;4.60;99.90
11583;DHT22;34299;50.820;4.548;2024-01-15T11:29:35;4.80;99.90
11583;DHT22;34299;50.820;4.548;2024-01-15T11:32:04;4.50;99.90
11583;DHT22;34299;50.820;4.548;2024-01-15T11:34:55;4.40;99.90
11583;DHT22;34299;50.820;4.548;2024-01-15T11:37:24;3.90;99.90
11583;DHT22;34299;50.820;4.548;2024-01-15T11:39:52;3.70;99.90
11583;DHT22;34299;50.820;4.548;2024-01-15T11:42:20;4.00;99.90
11583;DHT22;34299;50.820;4.548;2024-01-15T11:44:48;3.60;99.90
11583;DHT22;34299;50.820;4.548;2024-01-15T11:47:33;3.60;99.90
11583;DHT22;34299;50.820;4.548;2024-01-15T11:50:07;3.50;99.90
11583;DHT22;34299;50.820;4.548;2024-01-15T11:52:36;3.60;99.90
11583;DHT22;34299;50.820;4.548;2024-01-15T11:55:12;4.00;99.90
11583;DHT22;34299;50.820;4.548;2024-01-15T11:57:43;4.50;99.90
11583;DHT22;34299;50.820;4.548;2024-01-15T12:00:12;5.00;99.90
11583;DHT22;34299;50.820;4.548;2024-01-15T12:02:42;5.10;99.90
11583;DHT22;34299;50.820;4.548;2024-01-15T12:05:09;4.90;99.90
11583;DHT22;34299;50.820;4.548;2024-01-15T12:07:38;5.10;99.90
11583;DHT22;34299;50.820;4.548;2024-01-15T12:10:08;4.80;99.90
11583;DHT22;34299;50.820;4.548;2024-01-15T12:12:50;4.20;99.90
11583;DHT22;34299;50.820;4.548;2024-01-15T12:15:21;4.00;99.90
11583;DHT22;34299;50.820;4.548;2024-01-15T12:17:49;4.10;99.90
11583;DHT22;34299;50.820;4.548;2024-01-15T12:20:17;4.30;99.90
11583;DHT22;34299;50.820;4.548;2024-01-15T12:22:45;4.40;99.90
11583;DHT22;34299;50.820;4.548;2024-01-15T12:25:12;4.00;99.90
11583;DHT22;34299;50.820;4.548;2024-01-15T12:27:40;3.90;99.90
11583;DHT22;34299;50.820;4.548;2024-01-15T12:30:10;3.70;99.90
11583;DHT22;34299;50.820;4.548;2024-01-15T12:32:37;3.30;99.90
11583;DHT22;34299;50.820;4.548;2024-01-15T12:35:06;3.90;99.90
11583;DHT22;34299;50.820;4.548;2024-01-15T12:37:35;4.10;99.90
11583;DHT22;34299;50.820;4.548;2024-01-15T12:40:02;4.20;99.90
11583;DHT22;34299;50.820;4.548;2024-01-15T12:42:30;4.30;99.90
11583;DHT22;34299;50.820;4.548;2024-01-15T12:44:57;4.20;99.90
11583;DHT22;34299;50.820;4.548;2024-01-15T12:47:24;3.90;99.90
11583;DHT22;34299;50.820;4.548;2024-01-15T12:49:52;4.00;99.90
11583;DHT22;34299;50.820;4.548;2024-01-15T12:52:21;3.60;99.90
11583;DHT22;34299;50.820;4.548;2024-01-15T12:54:49;3.50;99.90
11583;DHT22;34299;50.820;4.548;2024-01-15T12:57:16;3.50;99.90
11583;DHT22;34299;50.820;4.548;2024-01-15T12:59:43;3.20;99.90
11583;DHT22;34299;50.820;4.548;2024-01-15T13:02:11;3.10;99.90
11583;DHT22;34299;50.820;4.548;2024-01-15T13:04:38;3.00;99.90
11583;DHT22;34299;50.820;4.548;2024-01-15T13:07:08;2.90;99.90
11583;DHT22;34299;50.820;4.548;2024-01-15T13:09:36;2.80;99.90
11583;DHT22;34299;50.820;4.548;2024-01-15T13:12:04;2.90;99.90
11583;DHT22;34299;50.820;4.548;2024-01-15T13:14:31;2.90;99.90
11583;DHT22;34299;50.820;4.548;2024-01-15T13:16:58;2.80;99.90
11583;DHT22;34299;50.820;4.548;2024-01-15T13:19:25;2.90;99.90
11583;DHT22;34299;50.820;4.548;2024-01-15T13:21:53;3.00;99.90
11583;DHT22;34299;50.820;4.548;2024-01-15T13:24:22;3.00;99.90
11583;DHT22;34299;50.820;4.548;2024-01-15T13:26:50;3.10;99.90
11583;DHT22;34299;50.820;4.548;2024-01-15T13:29:17;3.20;99.90
11583;DHT22;34299;50.820;4.548;2024-01-15T13:31:45;3.30;99.90
11583;DHT22;34299;50.820;4.548;2024-01-15T13:34:13;3.20;99.90
11583;DHT22;34299;50.820;4.548;2024-01-15T13:36:40;3.20;99.90
11583;DHT22;34299;50.820;4.548;2024-01-15T13:39:07;3.40;99.90
11583;DHT22;34299;50.820;4.548;2024-01-15T13:41:35;3.60;99.90
11583;DHT22;34299;50.820;4.548;2024-01-15T13:44:03;3.70;99.90
11583;DHT22;34299;50.820;4.548;2024-01-15T13:46:30;3.40;99.90
11583;DHT22;34299;50.820;4.548;2024-01-15T13:48:57;3.30;99.90
11583;DHT22;34299;50.820;4.548;2024-01-15T13:51:24;3.20;99.90
11583;DHT22;34299;50.820;4.548;2024-01-15T13:53:51;3.20;99.90
11583;DHT22;34299;50.820;4.548;2024-01-15T13:56:19;3.20;99.90
11583;DHT22;34299;50.820;4.548;2024-01-15T13:58:46;3.30;99.90
11583;DHT22;34299;50.820;4.548;2024-01-15T14:01:16;2.60;99.90
11583;DHT22;34299;50.820;4.548;2024-01-15T14:03:44;2.00;99.90
11583;DHT22;34299;50.820;4.548;2024-01-15T14:06:11;1.50;99.90
11583;DHT22;34299;50.820;4.548;2024-01-15T14:08:38;1.30;99.90
11583;DHT22;34299;50.820;4.548;2024-01-15T14:11:05;1.10;99.90
11583;DHT22;34299;50.820;4.548;2024-01-15T14:13:32;1.10;99.90
11583;DHT22;34299;50.820;4.548;2024-01-15T14:15:59;1.00;99.90
11583;DHT22;34299;50.820;4.548;2024-01-15T14:18:28;1.10;99.90
11583;DHT22;34299;50.820;4.548;2024-01-15T14:20:55;1.10;99.90
11583;DHT22;34299;50.820;4.548;2024-01-15T14:23:25;1.20;99.90
11583;DHT22;34299;50.820;4.548;2024-01-15T14:25:51;1.30;99.90
11583;DHT22;34299;50.820;4.548;2024-01-15T14:28:18;1.50;99.90
11583;DHT22;34299;50.820;4.548;2024-01-15T14:30:45;1.60;99.90
11583;DHT22;34299;50.820;4.548;2024-01-15T14:33:12;1.70;99.90
11583;DHT22;34299;50.820;4.548;2024-01-15T14:35:40;1.60;99.90
11583;DHT22;34299;50.820;4.548;2024-01-15T14:38:07;1.60;99.90
11583;DHT22;34299;50.820;4.548;2024-01-15T14:40:34;1.60;99.90
11583;DHT22;34299;50.820;4.548;2024-01-15T14:43:03;1.60;99.90
11583;DHT22;34299;50.820;4.548;2024-01-15T14:45:30;1.60;99.90
11583;DHT22;34299;50.820;4.548;2024-01-15T14:47:57;1.40;99.90
11583;DHT22;34299;50.820;4.548;2024-01-15T14:50:24;1.40;99.90
11583;DHT22;34299;50.820;4.548;2024-01-15T14:52:53;1.30;99.90
11583;DHT22;34299;50.820;4.548;2024-01-15T14:55:19;1.30;99.90
11583;DHT22;34299;50.820;4.548;2024-01-15T14:57:48;1.40;99.90
11583;DHT22;34299;50.820;4.548;2024-01-15T15:00:16;1.40;99.90
11583;DHT22;34299;50.820;4.548;2024-01-15T15:02:43;1.50;99.90
11583;DHT22;34299;50.820;4.548;2024-01-15T15:05:10;1.40;99.90
11583;DHT22;34299;50.820;4.548;2024-01-15T15:07:39;1.30;99.90
11583;DHT22;34299;50.820;4.548;2024-01-15T15:10:08;1.60;99.90
11583;DHT22;34299;50.820;4.548;2024-01-15T15:12:36;1.20;99.90
11583;DHT22;34299;50.820;4.548;2024-01-15T15:15:04;1.20;99.90
11583;DHT22;34299;50.820;4.548;2024-01-15T15:17:32;1.20;99.90
11583;DHT22;34299;50.820;4.548;2024-01-15T15:20:00;1.20;99.90
11583;DHT22;34299;50.820;4.548;2024-01-15T15:22:28;1.20;99.90
11583;DHT22;34299;50.820;4.548;2024-01-15T15:24:55;1.30;99.90
11583;DHT22;34299;50.820;4.548;2024-01-15T15:27:23;1.30;99.90
11583;DHT22;34299;50.820;4.548;2024-01-15T15:29:52;1.40;99.90
11583;DHT22;34299;50.820;4.548;2024-01-15T15:32:19;1.40;99.90
11583;DHT22;34299;50.820;4.548;2024-01-15T15:34:46;1.40;99.90
11583;DHT22;34299;50.820;4.548;2024-01-15T15:37:13;1.40;99.90
11583;DHT22;34299;50.820;4.548;2024-01-15T15:39:42;1.40;99.90
11583;DHT22;34299;50.820;4.548;2024-01-15T15:42:09;1.70;99.90
11583;DHT22;34299;50.820;4.548;2024-01-15T15:44:37;1.40;99.90
11583;DHT22;34299;50.820;4.548;2024-01-15T15:47:09;1.40;99.90